sensor_id;sensor_type;location;lat;lon;timestamp;P1;durP1;ratioP1;P2;durP2;ratioP2
52188;SDS011;38162;45.926;13.608;2022-12-05T00:01:56;4.83;;;2.87;;
52188;SDS011;38162;45.926;13.608;2022-12-05T00:04:21;5.40;;;2.77;;
52188;SDS011;38162;45.926;13.608;2022-12-05T00:06:47;4.73;;;3.13;;
52188;SDS011;38162;45.926;13.608;2022-12-05T00:09:13;5.10;;;2.73;;
52188;SDS011;38162;45.926;13.608;2022-12-05T00:11:39;4.10;;;3.10;;
52188;SDS011;38162;45.926;13.608;2022-12-05T00:14:07;6.87;;;3.00;;
52188;SDS011;38162;45.926;13.608;2022-12-05T00:16:35;4.43;;;3.20;;
52188;SDS011;38162;45.926;13.608;2022-12-05T00:19:03;3.90;;;3.03;;
52188;SDS011;38162;45.926;13.608;2022-12-05T00:21:30;5.00;;;3.07;;
52188;SDS011;38162;45.926;13.608;2022-12-05T00:23:58;6.27;;;2.77;;
52188;SDS011;38162;45.926;13.608;2022-12-05T00:26:25;4.77;;;2.73;;
52188;SDS011;38162;45.926;13.608;2022-12-05T00:28:51;5.63;;;2.83;;
52188;SDS011;38162;45.926;13.608;2022-12-05T00:31:18;7.43;;;2.90;;
52188;SDS011;38162;45.926;13.608;2022-12-05T00:33:46;7.03;;;2.53;;
52188;SDS011;38162;45.926;13.608;2022-12-05T00:36:13;4.53;;;2.77;;
52188;SDS011;38162;45.926;13.608;2022-12-05T00:38:50;7.10;;;2.77;;
52188;SDS011;38162;45.926;13.608;2022-12-05T00:41:17;3.63;;;2.53;;
52188;SDS011;38162;45.926;13.608;2022-12-05T00:43:45;10.97;;;2.70;;
52188;SDS011;38162;45.926;13.608;2022-12-05T00:46:12;7.03;;;2.30;;
52188;SDS011;38162;45.926;13.608;2022-12-05T00:48:39;2.90;;;1.90;;
52188;SDS011;38162;45.926;13.608;2022-12-05T00:51:10;3.97;;;2.03;;
52188;SDS011;38162;45.926;13.608;2022-12-05T00:53:36;3.07;;;1.47;;
52188;SDS011;38162;45.926;13.608;2022-12-05T00:56:02;3.37;;;1.60;;
52188;SDS011;38162;45.926;13.608;2022-12-05T00:58:30;2.67;;;1.30;;
52188;SDS011;38162;45.926;13.608;2022-12-05T01:00:56;2.37;;;1.20;;
52188;SDS011;38162;45.926;13.608;2022-12-05T01:03:21;1.97;;;1.23;;
52188;SDS011;38162;45.926;13.608;2022-12-05T01:05:47;4.53;;;1.20;;
52188;SDS011;38162;45.926;13.608;2022-12-05T01:08:13;3.07;;;1.30;;
52188;SDS011;38162;45.926;13.608;2022-12-05T01:10:38;4.70;;;1.57;;
52188;SDS011;38162;45.926;13.608;2022-12-05T01:13:04;2.83;;;1.57;;
52188;SDS011;38162;45.926;13.608;2022-12-05T01:15:30;5.00;;;1.90;;
52188;SDS011;38162;45.926;13.608;2022-12-05T01:17:55;4.43;;;1.80;;
52188;SDS011;38162;45.926;13.608;2022-12-05T01:20:21;4.20;;;2.30;;
52188;SDS011;38162;45.926;13.608;2022-12-05T01:22:46;3.23;;;2.03;;
52188;SDS011;38162;45.926;13.608;2022-12-05T01:25:12;4.07;;;2.00;;
52188;SDS011;38162;45.926;13.608;2022-12-05T01:27:38;4.23;;;1.60;;
52188;SDS011;38162;45.926;13.608;2022-12-05T01:30:04;2.27;;;1.50;;
52188;SDS011;38162;45.926;13.608;2022-12-05T01:32:30;6.43;;;1.60;;
52188;SDS011;38162;45.926;13.608;2022-12-05T01:34:56;3.00;;;1.40;;
52188;SDS011;38162;45.926;13.608;2022-12-05T01:37:22;2.83;;;1.60;;
52188;SDS011;38162;45.926;13.608;2022-12-05T01:39:48;4.20;;;1.57;;
52188;SDS011;38162;45.926;13.608;2022-12-05T01:42:13;3.83;;;1.53;;
52188;SDS011;38162;45.926;13.608;2022-12-05T01:47:08;2.93;;;1.53;;
52188;SDS011;38162;45.926;13.608;2022-12-05T01:49:38;4.33;;;1.60;;
52188;SDS011;38162;45.926;13.608;2022-12-05T01:52:18;2.00;;;1.67;;
52188;SDS011;38162;45.926;13.608;2022-12-05T01:54:48;3.25;;;1.90;;
52188;SDS011;38162;45.926;13.608;2022-12-05T01:57:18;3.90;;;1.50;;
52188;SDS011;38162;45.926;13.608;2022-12-05T01:59:45;3.50;;;1.50;;
52188;SDS011;38162;45.926;13.608;2022-12-05T02:02:22;2.70;;;1.20;;
52188;SDS011;38162;45.926;13.608;2022-12-05T02:07:23;2.20;;;1.30;;
52188;SDS011;38162;45.926;13.608;2022-12-05T02:09:49;1.63;;;1.30;;
52188;SDS011;38162;45.926;13.608;2022-12-05T02:12:15;3.67;;;1.40;;
52188;SDS011;38162;45.926;13.608;2022-12-05T02:14:57;3.63;;;1.47;;
52188;SDS011;38162;45.926;13.608;2022-12-05T02:24:15;4.50;;;1.30;;
52188;SDS011;38162;45.926;13.608;2022-12-05T02:31:40;2.33;;;1.40;;
52188;SDS011;38162;45.926;13.608;2022-12-05T02:37:20;3.00;;;1.30;;
52188;SDS011;38162;45.926;13.608;2022-12-05T02:40:13;2.40;;;1.30;;
52188;SDS011;38162;45.926;13.608;2022-12-05T02:45:15;3.40;;;1.60;;
52188;SDS011;38162;45.926;13.608;2022-12-05T02:47:45;4.90;;;1.60;;
52188;SDS011;38162;45.926;13.608;2022-12-05T02:50:22;4.50;;;1.47;;
52188;SDS011;38162;45.926;13.608;2022-12-05T02:52:50;6.13;;;1.60;;
52188;SDS011;38162;45.926;13.608;2022-12-05T02:55:19;3.83;;;1.20;;
52188;SDS011;38162;45.926;13.608;2022-12-05T02:57:49;3.73;;;1.67;;
52188;SDS011;38162;45.926;13.608;2022-12-05T03:00:19;2.05;;;1.55;;
52188;SDS011;38162;45.926;13.608;2022-12-05T03:02:46;2.73;;;1.50;;
52188;SDS011;38162;45.926;13.608;2022-12-05T03:05:22;1.97;;;1.40;;
52188;SDS011;38162;45.926;13.608;2022-12-05T03:08:02;3.23;;;1.70;;
52188;SDS011;38162;45.926;13.608;2022-12-05T03:10:30;3.60;;;1.80;;
52188;SDS011;38162;45.926;13.608;2022-12-05T03:12:59;3.33;;;1.67;;
52188;SDS011;38162;45.926;13.608;2022-12-05T03:15:32;4.57;;;1.40;;
52188;SDS011;38162;45.926;13.608;2022-12-05T03:18:07;2.13;;;1.50;;
52188;SDS011;38162;45.926;13.608;2022-12-05T03:20:42;4.43;;;1.50;;
52188;SDS011;38162;45.926;13.608;2022-12-05T03:23:17;3.10;;;2.00;;
52188;SDS011;38162;45.926;13.608;2022-12-05T03:26:04;9.07;;;2.00;;
52188;SDS011;38162;45.926;13.608;2022-12-05T03:31:13;2.80;;;2.00;;
52188;SDS011;38162;45.926;13.608;2022-12-05T03:33:45;5.93;;;1.90;;
52188;SDS011;38162;45.926;13.608;2022-12-05T03:36:16;5.37;;;2.00;;
52188;SDS011;38162;45.926;13.608;2022-12-05T03:38:56;6.65;;;2.30;;
52188;SDS011;38162;45.926;13.608;2022-12-05T03:44:26;4.73;;;2.00;;
52188;SDS011;38162;45.926;13.608;2022-12-05T03:49:58;4.83;;;1.90;;
52188;SDS011;38162;45.926;13.608;2022-12-05T03:52:39;3.53;;;1.30;;
52188;SDS011;38162;45.926;13.608;2022-12-05T03:55:10;3.03;;;1.40;;
52188;SDS011;38162;45.926;13.608;2022-12-05T03:57:42;3.53;;;1.80;;
52188;SDS011;38162;45.926;13.608;2022-12-05T04:00:28;4.93;;;1.47;;
52188;SDS011;38162;45.926;13.608;2022-12-05T04:03:41;2.60;;;1.30;;
52188;SDS011;38162;45.926;13.608;2022-12-05T04:05:55;2.90;;;1.30;;
52188;SDS011;38162;45.926;13.608;2022-12-05T04:08:26;10.27;;;2.20;;
52188;SDS011;38162;45.926;13.608;2022-12-05T04:11:06;7.13;;;1.47;;
52188;SDS011;38162;45.926;13.608;2022-12-05T04:16:33;3.20;;;1.20;;
52188;SDS011;38162;45.926;13.608;2022-12-05T04:19:35;4.70;;;1.67;;
52188;SDS011;38162;45.926;13.608;2022-12-05T04:22:31;2.83;;;1.20;;
52188;SDS011;38162;45.926;13.608;2022-12-05T04:24:58;3.83;;;1.30;;
52188;SDS011;38162;45.926;13.608;2022-12-05T04:30:23;2.90;;;1.57;;
52188;SDS011;38162;45.926;13.608;2022-12-05T04:35:24;4.87;;;1.77;;
52188;SDS011;38162;45.926;13.608;2022-12-05T04:37:59;5.70;;;1.60;;
52188;SDS011;38162;45.926;13.608;2022-12-05T04:40:37;3.67;;;1.40;;
52188;SDS011;38162;45.926;13.608;2022-12-05T04:43:16;2.40;;;1.30;;
52188;SDS011;38162;45.926;13.608;2022-12-05T04:45:43;3.93;;;1.80;;
52188;SDS011;38162;45.926;13.608;2022-12-05T04:48:11;2.63;;;1.63;;
52188;SDS011;38162;45.926;13.608;2022-12-05T04:50:40;5.47;;;1.53;;
52188;SDS011;38162;45.926;13.608;2022-12-05T04:53:08;3.37;;;2.10;;
52188;SDS011;38162;45.926;13.608;2022-12-05T04:55:36;3.47;;;1.90;;
52188;SDS011;38162;45.926;13.608;2022-12-05T04:58:08;3.63;;;1.70;;
52188;SDS011;38162;45.926;13.608;2022-12-05T05:00:47;3.93;;;2.13;;
52188;SDS011;38162;45.926;13.608;2022-12-05T05:06:23;7.93;;;2.67;;
52188;SDS011;38162;45.926;13.608;2022-12-05T05:08:54;6.07;;;2.50;;
52188;SDS011;38162;45.926;13.608;2022-12-05T05:11:22;7.97;;;2.87;;
52188;SDS011;38162;45.926;13.608;2022-12-05T05:13:50;5.77;;;3.10;;
52188;SDS011;38162;45.926;13.608;2022-12-05T05:16:20;7.27;;;3.00;;
52188;SDS011;38162;45.926;13.608;2022-12-05T05:18:48;8.37;;;3.10;;
52188;SDS011;38162;45.926;13.608;2022-12-05T05:21:18;8.17;;;3.30;;
52188;SDS011;38162;45.926;13.608;2022-12-05T05:26:12;5.50;;;2.47;;
52188;SDS011;38162;45.926;13.608;2022-12-05T05:28:38;9.20;;;2.77;;
52188;SDS011;38162;45.926;13.608;2022-12-05T05:31:04;11.23;;;2.93;;
52188;SDS011;38162;45.926;13.608;2022-12-05T05:33:31;7.57;;;3.27;;
52188;SDS011;38162;45.926;13.608;2022-12-05T05:36:08;5.77;;;2.87;;
52188;SDS011;38162;45.926;13.608;2022-12-05T05:38:35;4.43;;;2.77;;
52188;SDS011;38162;45.926;13.608;2022-12-05T05:41:10;5.63;;;2.50;;
52188;SDS011;38162;45.926;13.608;2022-12-05T05:43:38;7.63;;;2.55;;
52188;SDS011;38162;45.926;13.608;2022-12-05T05:46:04;6.27;;;2.87;;
52188;SDS011;38162;45.926;13.608;2022-12-05T05:48:30;6.60;;;2.80;;
52188;SDS011;38162;45.926;13.608;2022-12-05T05:50:59;5.77;;;3.03;;
52188;SDS011;38162;45.926;13.608;2022-12-05T05:53:25;6.40;;;3.23;;
52188;SDS011;38162;45.926;13.608;2022-12-05T05:55:51;7.20;;;3.07;;
52188;SDS011;38162;45.926;13.608;2022-12-05T05:58:17;5.87;;;3.73;;
52188;SDS011;38162;45.926;13.608;2022-12-05T06:00:42;5.47;;;3.13;;
52188;SDS011;38162;45.926;13.608;2022-12-05T06:03:08;7.77;;;3.37;;
52188;SDS011;38162;45.926;13.608;2022-12-05T06:05:34;7.67;;;3.37;;
52188;SDS011;38162;45.926;13.608;2022-12-05T06:07:59;5.30;;;2.97;;
52188;SDS011;38162;45.926;13.608;2022-12-05T06:10:25;6.93;;;3.60;;
52188;SDS011;38162;45.926;13.608;2022-12-05T06:12:51;7.70;;;3.63;;
52188;SDS011;38162;45.926;13.608;2022-12-05T06:15:17;10.67;;;4.03;;
52188;SDS011;38162;45.926;13.608;2022-12-05T06:17:42;7.00;;;3.40;;
52188;SDS011;38162;45.926;13.608;2022-12-05T06:20:08;7.53;;;4.80;;
52188;SDS011;38162;45.926;13.608;2022-12-05T06:22:34;11.97;;;8.20;;
52188;SDS011;38162;45.926;13.608;2022-12-05T06:25:00;13.53;;;6.33;;
52188;SDS011;38162;45.926;13.608;2022-12-05T06:27:27;9.60;;;4.63;;
52188;SDS011;38162;45.926;13.608;2022-12-05T06:29:53;11.30;;;8.30;;
52188;SDS011;38162;45.926;13.608;2022-12-05T06:32:19;8.90;;;5.00;;
52188;SDS011;38162;45.926;13.608;2022-12-05T06:34:44;8.97;;;6.00;;
52188;SDS011;38162;45.926;13.608;2022-12-05T06:37:10;14.27;;;8.53;;
52188;SDS011;38162;45.926;13.608;2022-12-05T06:39:36;7.17;;;5.73;;
52188;SDS011;38162;45.926;13.608;2022-12-05T06:42:02;9.70;;;4.80;;
52188;SDS011;38162;45.926;13.608;2022-12-05T06:44:28;7.73;;;4.27;;
52188;SDS011;38162;45.926;13.608;2022-12-05T06:46:54;7.53;;;4.57;;
52188;SDS011;38162;45.926;13.608;2022-12-05T06:49:20;8.80;;;4.90;;
52188;SDS011;38162;45.926;13.608;2022-12-05T06:51:50;10.40;;;6.50;;
52188;SDS011;38162;45.926;13.608;2022-12-05T06:54:15;14.30;;;5.73;;
52188;SDS011;38162;45.926;13.608;2022-12-05T06:56:41;8.40;;;5.10;;
52188;SDS011;38162;45.926;13.608;2022-12-05T06:59:07;7.50;;;4.40;;
52188;SDS011;38162;45.926;13.608;2022-12-05T07:01:32;8.53;;;4.47;;
52188;SDS011;38162;45.926;13.608;2022-12-05T07:04:11;9.77;;;4.20;;
52188;SDS011;38162;45.926;13.608;2022-12-05T07:06:40;8.10;;;4.10;;
52188;SDS011;38162;45.926;13.608;2022-12-05T07:09:07;11.67;;;4.50;;
52188;SDS011;38162;45.926;13.608;2022-12-05T07:11:33;6.37;;;3.97;;
52188;SDS011;38162;45.926;13.608;2022-12-05T07:13:59;6.40;;;4.67;;
52188;SDS011;38162;45.926;13.608;2022-12-05T07:16:25;9.20;;;4.43;;
52188;SDS011;38162;45.926;13.608;2022-12-05T07:18:50;11.27;;;4.70;;
52188;SDS011;38162;45.926;13.608;2022-12-05T07:21:16;8.53;;;4.67;;
52188;SDS011;38162;45.926;13.608;2022-12-05T07:23:43;11.27;;;4.67;;
52188;SDS011;38162;45.926;13.608;2022-12-05T07:26:11;10.67;;;5.23;;
52188;SDS011;38162;45.926;13.608;2022-12-05T07:28:38;14.93;;;4.63;;
52188;SDS011;38162;45.926;13.608;2022-12-05T07:31:11;10.03;;;5.10;;
52188;SDS011;38162;45.926;13.608;2022-12-05T07:33:38;9.23;;;4.07;;
52188;SDS011;38162;45.926;13.608;2022-12-05T07:36:25;7.80;;;4.10;;
52188;SDS011;38162;45.926;13.608;2022-12-05T07:38:54;9.93;;;4.20;;
52188;SDS011;38162;45.926;13.608;2022-12-05T07:41:25;13.03;;;4.30;;
52188;SDS011;38162;45.926;13.608;2022-12-05T07:43:54;14.53;;;6.70;;
52188;SDS011;38162;45.926;13.608;2022-12-05T07:46:21;12.50;;;6.67;;
52188;SDS011;38162;45.926;13.608;2022-12-05T07:48:48;8.40;;;5.37;;
52188;SDS011;38162;45.926;13.608;2022-12-05T07:51:14;8.97;;;5.60;;
52188;SDS011;38162;45.926;13.608;2022-12-05T07:53:40;12.93;;;6.63;;
52188;SDS011;38162;45.926;13.608;2022-12-05T07:56:08;16.87;;;12.60;;
52188;SDS011;38162;45.926;13.608;2022-12-05T07:58:35;12.93;;;7.17;;
52188;SDS011;38162;45.926;13.608;2022-12-05T08:01:21;13.27;;;6.20;;
52188;SDS011;38162;45.926;13.608;2022-12-05T08:03:48;14.83;;;8.50;;
52188;SDS011;38162;45.926;13.608;2022-12-05T08:06:21;9.80;;;5.20;;
52188;SDS011;38162;45.926;13.608;2022-12-05T08:08:49;6.30;;;3.13;;
52188;SDS011;38162;45.926;13.608;2022-12-05T08:11:19;7.00;;;3.53;;
52188;SDS011;38162;45.926;13.608;2022-12-05T08:13:46;8.17;;;3.47;;
52188;SDS011;38162;45.926;13.608;2022-12-05T08:16:13;7.03;;;3.33;;
52188;SDS011;38162;45.926;13.608;2022-12-05T08:18:41;18.20;;;7.00;;
52188;SDS011;38162;45.926;13.608;2022-12-05T08:21:11;9.20;;;5.97;;
52188;SDS011;38162;45.926;13.608;2022-12-05T08:23:39;5.47;;;3.30;;
52188;SDS011;38162;45.926;13.608;2022-12-05T08:26:12;8.77;;;3.93;;
52188;SDS011;38162;45.926;13.608;2022-12-05T08:28:40;7.10;;;2.90;;
52188;SDS011;38162;45.926;13.608;2022-12-05T08:31:08;4.80;;;3.20;;
52188;SDS011;38162;45.926;13.608;2022-12-05T08:33:35;5.23;;;3.00;;
52188;SDS011;38162;45.926;13.608;2022-12-05T08:36:02;6.80;;;3.30;;
52188;SDS011;38162;45.926;13.608;2022-12-05T08:38:29;15.73;;;3.87;;
52188;SDS011;38162;45.926;13.608;2022-12-05T08:40:56;14.27;;;7.50;;
52188;SDS011;38162;45.926;13.608;2022-12-05T08:43:25;10.83;;;5.30;;
52188;SDS011;38162;45.926;13.608;2022-12-05T08:45:51;8.17;;;3.57;;
52188;SDS011;38162;45.926;13.608;2022-12-05T08:48:17;6.10;;;3.50;;
52188;SDS011;38162;45.926;13.608;2022-12-05T08:50:43;6.60;;;3.27;;
52188;SDS011;38162;45.926;13.608;2022-12-05T08:53:09;10.33;;;2.77;;
52188;SDS011;38162;45.926;13.608;2022-12-05T08:55:35;7.23;;;3.10;;
52188;SDS011;38162;45.926;13.608;2022-12-05T08:58:02;6.27;;;3.40;;
52188;SDS011;38162;45.926;13.608;2022-12-05T09:00:28;7.10;;;2.90;;
52188;SDS011;38162;45.926;13.608;2022-12-05T09:02:54;7.90;;;3.50;;
52188;SDS011;38162;45.926;13.608;2022-12-05T09:05:21;7.17;;;3.93;;
52188;SDS011;38162;45.926;13.608;2022-12-05T09:07:47;7.47;;;3.50;;
52188;SDS011;38162;45.926;13.608;2022-12-05T09:10:13;5.53;;;2.90;;
52188;SDS011;38162;45.926;13.608;2022-12-05T09:12:38;9.40;;;3.13;;
52188;SDS011;38162;45.926;13.608;2022-12-05T09:15:05;6.10;;;2.63;;
52188;SDS011;38162;45.926;13.608;2022-12-05T09:17:31;5.87;;;3.00;;
52188;SDS011;38162;45.926;13.608;2022-12-05T09:19:57;4.67;;;2.73;;
52188;SDS011;38162;45.926;13.608;2022-12-05T09:22:23;6.20;;;3.30;;
52188;SDS011;38162;45.926;13.608;2022-12-05T09:24:49;8.30;;;3.23;;
52188;SDS011;38162;45.926;13.608;2022-12-05T09:27:15;8.90;;;3.87;;
52188;SDS011;38162;45.926;13.608;2022-12-05T09:29:40;8.33;;;3.47;;
52188;SDS011;38162;45.926;13.608;2022-12-05T09:32:07;6.33;;;2.90;;
52188;SDS011;38162;45.926;13.608;2022-12-05T09:34:33;5.17;;;3.10;;
52188;SDS011;38162;45.926;13.608;2022-12-05T09:37:00;6.07;;;2.77;;
52188;SDS011;38162;45.926;13.608;2022-12-05T09:39:26;6.80;;;3.17;;
52188;SDS011;38162;45.926;13.608;2022-12-05T09:41:58;26.77;;;4.10;;
52188;SDS011;38162;45.926;13.608;2022-12-05T09:47:14;6.03;;;3.67;;
52188;SDS011;38162;45.926;13.608;2022-12-05T09:49:59;8.70;;;4.30;;
52188;SDS011;38162;45.926;13.608;2022-12-05T09:58:12;7.90;;;4.20;;
52188;SDS011;38162;45.926;13.608;2022-12-05T10:00:43;10.90;;;4.93;;
52188;SDS011;38162;45.926;13.608;2022-12-05T10:06:02;17.83;;;6.47;;
52188;SDS011;38162;45.926;13.608;2022-12-05T10:08:59;11.87;;;7.23;;
52188;SDS011;38162;45.926;13.608;2022-12-05T10:11:58;9.57;;;5.13;;
52188;SDS011;38162;45.926;13.608;2022-12-05T10:16:54;7.37;;;3.97;;
52188;SDS011;38162;45.926;13.608;2022-12-05T10:19:29;7.97;;;4.13;;
52188;SDS011;38162;45.926;13.608;2022-12-05T10:24:32;6.43;;;3.97;;
52188;SDS011;38162;45.926;13.608;2022-12-05T10:27:03;7.38;;;4.38;;
52188;SDS011;38162;45.926;13.608;2022-12-05T10:32:09;7.73;;;3.00;;
52188;SDS011;38162;45.926;13.608;2022-12-05T10:34:41;6.80;;;2.83;;
52188;SDS011;38162;45.926;13.608;2022-12-05T10:37:10;7.30;;;2.88;;
52188;SDS011;38162;45.926;13.608;2022-12-05T10:39:46;6.88;;;2.70;;
52188;SDS011;38162;45.926;13.608;2022-12-05T10:42:27;6.20;;;2.80;;
52188;SDS011;38162;45.926;13.608;2022-12-05T10:44:56;3.88;;;2.40;;
52188;SDS011;38162;45.926;13.608;2022-12-05T10:47:26;4.78;;;3.15;;
52188;SDS011;38162;45.926;13.608;2022-12-05T10:49:54;5.05;;;2.88;;
52188;SDS011;38162;45.926;13.608;2022-12-05T10:52:21;4.97;;;2.67;;
52188;SDS011;38162;45.926;13.608;2022-12-05T10:54:48;4.85;;;2.67;;
52188;SDS011;38162;45.926;13.608;2022-12-05T10:57:21;5.97;;;2.97;;
52188;SDS011;38162;45.926;13.608;2022-12-05T10:59:52;4.55;;;2.22;;
52188;SDS011;38162;45.926;13.608;2022-12-05T11:02:25;5.28;;;2.50;;
52188;SDS011;38162;45.926;13.608;2022-12-05T11:04:53;3.53;;;1.98;;
52188;SDS011;38162;45.926;13.608;2022-12-05T11:09:56;5.55;;;2.67;;
52188;SDS011;38162;45.926;13.608;2022-12-05T11:12:23;6.20;;;3.08;;
52188;SDS011;38162;45.926;13.608;2022-12-05T11:17:23;7.47;;;4.32;;
52188;SDS011;38162;45.926;13.608;2022-12-05T11:20:00;8.75;;;4.47;;
52188;SDS011;38162;45.926;13.608;2022-12-05T11:22:31;10.88;;;4.85;;
52188;SDS011;38162;45.926;13.608;2022-12-05T11:24:58;9.95;;;5.00;;
52188;SDS011;38162;45.926;13.608;2022-12-05T11:27:30;8.70;;;4.07;;
52188;SDS011;38162;45.926;13.608;2022-12-05T11:30:01;6.40;;;3.85;;
52188;SDS011;38162;45.926;13.608;2022-12-05T11:32:38;9.82;;;4.82;;
52188;SDS011;38162;45.926;13.608;2022-12-05T11:35:08;10.60;;;5.03;;
52188;SDS011;38162;45.926;13.608;2022-12-05T11:37:51;7.82;;;4.68;;
52188;SDS011;38162;45.926;13.608;2022-12-05T11:40:24;7.65;;;4.43;;
52188;SDS011;38162;45.926;13.608;2022-12-05T11:45:35;8.52;;;4.53;;
52188;SDS011;38162;45.926;13.608;2022-12-05T11:51:22;11.75;;;4.32;;
52188;SDS011;38162;45.926;13.608;2022-12-05T11:56:52;8.57;;;4.00;;
52188;SDS011;38162;45.926;13.608;2022-12-05T12:04:48;6.78;;;4.57;;
52188;SDS011;38162;45.926;13.608;2022-12-05T12:10:31;8.15;;;4.00;;
52188;SDS011;38162;45.926;13.608;2022-12-05T12:13:00;10.40;;;4.05;;
52188;SDS011;38162;45.926;13.608;2022-12-05T12:15:52;8.52;;;4.20;;
52188;SDS011;38162;45.926;13.608;2022-12-05T12:24:03;6.13;;;3.75;;
52188;SDS011;38162;45.926;13.608;2022-12-05T12:35:38;8.57;;;4.20;;
52188;SDS011;38162;45.926;13.608;2022-12-05T12:40:50;14.65;;;6.38;;
52188;SDS011;38162;45.926;13.608;2022-12-05T12:51:32;11.38;;;6.43;;
52188;SDS011;38162;45.926;13.608;2022-12-05T12:57:04;12.82;;;6.30;;
52188;SDS011;38162;45.926;13.608;2022-12-05T12:59:31;15.75;;;6.78;;
52188;SDS011;38162;45.926;13.608;2022-12-05T13:02:16;11.75;;;6.13;;
52188;SDS011;38162;45.926;13.608;2022-12-05T13:04:57;13.65;;;6.22;;
52188;SDS011;38162;45.926;13.608;2022-12-05T13:07:45;12.25;;;5.88;;
52188;SDS011;38162;45.926;13.608;2022-12-05T13:10:26;9.67;;;6.27;;
52188;SDS011;38162;45.926;13.608;2022-12-05T13:12:57;8.77;;;5.70;;
52188;SDS011;38162;45.926;13.608;2022-12-05T13:15:40;12.88;;;5.95;;
52188;SDS011;38162;45.926;13.608;2022-12-05T13:18:13;15.02;;;6.38;;
52188;SDS011;38162;45.926;13.608;2022-12-05T13:20:47;13.63;;;6.38;;
52188;SDS011;38162;45.926;13.608;2022-12-05T13:23:15;12.18;;;6.65;;
52188;SDS011;38162;45.926;13.608;2022-12-05T13:25:45;17.58;;;7.35;;
52188;SDS011;38162;45.926;13.608;2022-12-05T13:28:55;10.20;;;6.15;;
52188;SDS011;38162;45.926;13.608;2022-12-05T13:31:11;12.05;;;6.35;;
52188;SDS011;38162;45.926;13.608;2022-12-05T13:33:44;9.57;;;6.00;;
52188;SDS011;38162;45.926;13.608;2022-12-05T13:36:15;8.65;;;5.40;;
52188;SDS011;38162;45.926;13.608;2022-12-05T13:39:05;11.65;;;6.43;;
52188;SDS011;38162;45.926;13.608;2022-12-05T13:41:57;14.10;;;7.20;;
52188;SDS011;38162;45.926;13.608;2022-12-05T13:52:54;10.82;;;6.75;;
52188;SDS011;38162;45.926;13.608;2022-12-05T14:06:43;14.18;;;8.15;;
52188;SDS011;38162;45.926;13.608;2022-12-05T14:09:03;18.17;;;9.10;;
52188;SDS011;38162;45.926;13.608;2022-12-05T14:17:28;11.90;;;7.13;;
52188;SDS011;38162;45.926;13.608;2022-12-05T14:28:30;15.40;;;7.47;;
52188;SDS011;38162;45.926;13.608;2022-12-05T14:34:15;14.88;;;6.75;;
52188;SDS011;38162;45.926;13.608;2022-12-05T14:39:45;12.70;;;5.82;;
52188;SDS011;38162;45.926;13.608;2022-12-05T14:42:22;10.02;;;5.82;;
52188;SDS011;38162;45.926;13.608;2022-12-05T14:45:03;10.18;;;5.80;;
52188;SDS011;38162;45.926;13.608;2022-12-05T14:47:49;12.85;;;5.70;;
52188;SDS011;38162;45.926;13.608;2022-12-05T14:55:46;13.63;;;6.75;;
52188;SDS011;38162;45.926;13.608;2022-12-05T14:58:19;13.05;;;7.10;;
52188;SDS011;38162;45.926;13.608;2022-12-05T15:00:52;10.18;;;6.75;;
52188;SDS011;38162;45.926;13.608;2022-12-05T15:03:24;16.75;;;7.95;;
52188;SDS011;38162;45.926;13.608;2022-12-05T15:06:04;12.75;;;8.38;;
52188;SDS011;38162;45.926;13.608;2022-12-05T15:08:39;17.77;;;9.48;;
52188;SDS011;38162;45.926;13.608;2022-12-05T15:11:13;15.57;;;9.35;;
52188;SDS011;38162;45.926;13.608;2022-12-05T15:14:27;12.50;;;8.48;;
52188;SDS011;38162;45.926;13.608;2022-12-05T15:16:48;15.73;;;7.35;;
52188;SDS011;38162;45.926;13.608;2022-12-05T15:19:18;15.80;;;8.32;;
52188;SDS011;38162;45.926;13.608;2022-12-05T15:21:54;16.08;;;9.05;;
52188;SDS011;38162;45.926;13.608;2022-12-05T15:24:22;15.50;;;8.30;;
52188;SDS011;38162;45.926;13.608;2022-12-05T15:26:51;11.10;;;7.68;;
52188;SDS011;38162;45.926;13.608;2022-12-05T15:29:25;16.23;;;8.63;;
52188;SDS011;38162;45.926;13.608;2022-12-05T15:37:11;14.95;;;7.25;;
52188;SDS011;38162;45.926;13.608;2022-12-05T15:42:44;12.40;;;7.30;;
52188;SDS011;38162;45.926;13.608;2022-12-05T15:52:48;15.63;;;8.82;;
52188;SDS011;38162;45.926;13.608;2022-12-05T15:55:35;13.30;;;8.07;;
52188;SDS011;38162;45.926;13.608;2022-12-05T15:58:19;14.07;;;8.77;;
52188;SDS011;38162;45.926;13.608;2022-12-05T16:00:48;19.35;;;9.60;;
52188;SDS011;38162;45.926;13.608;2022-12-05T16:03:32;16.50;;;8.85;;
52188;SDS011;38162;45.926;13.608;2022-12-05T16:06:04;20.92;;;10.38;;
52188;SDS011;38162;45.926;13.608;2022-12-05T16:08:42;15.57;;;7.53;;
52188;SDS011;38162;45.926;13.608;2022-12-05T16:11:08;14.80;;;7.63;;
52188;SDS011;38162;45.926;13.608;2022-12-05T16:13:35;13.85;;;7.53;;
52188;SDS011;38162;45.926;13.608;2022-12-05T16:16:06;13.63;;;7.57;;
52188;SDS011;38162;45.926;13.608;2022-12-05T16:18:32;10.10;;;6.45;;
52188;SDS011;38162;45.926;13.608;2022-12-05T16:20:58;16.58;;;6.90;;
52188;SDS011;38162;45.926;13.608;2022-12-05T16:23:28;17.10;;;6.15;;
52188;SDS011;38162;45.926;13.608;2022-12-05T16:26:09;12.35;;;5.93;;
52188;SDS011;38162;45.926;13.608;2022-12-05T16:28:40;19.80;;;6.43;;
52188;SDS011;38162;45.926;13.608;2022-12-05T16:31:05;23.08;;;4.88;;
52188;SDS011;38162;45.926;13.608;2022-12-05T16:33:31;22.17;;;3.90;;
52188;SDS011;38162;45.926;13.608;2022-12-05T16:36:07;15.57;;;3.92;;
52188;SDS011;38162;45.926;13.608;2022-12-05T16:38:34;17.85;;;3.95;;
52188;SDS011;38162;45.926;13.608;2022-12-05T16:41:01;17.95;;;2.78;;
52188;SDS011;38162;45.926;13.608;2022-12-05T16:48:39;18.80;;;3.60;;
52188;SDS011;38162;45.926;13.608;2022-12-05T16:51:18;28.92;;;4.18;;
52188;SDS011;38162;45.926;13.608;2022-12-05T16:53:49;17.48;;;3.60;;
52188;SDS011;38162;45.926;13.608;2022-12-05T16:58:46;10.07;;;2.42;;
52188;SDS011;38162;45.926;13.608;2022-12-05T17:01:17;15.48;;;2.70;;
52188;SDS011;38162;45.926;13.608;2022-12-05T17:06:10;17.48;;;2.95;;
52188;SDS011;38162;45.926;13.608;2022-12-05T17:08:37;16.83;;;2.65;;
52188;SDS011;38162;45.926;13.608;2022-12-05T17:11:02;13.98;;;2.85;;
52188;SDS011;38162;45.926;13.608;2022-12-05T17:13:29;13.02;;;2.40;;
52188;SDS011;38162;45.926;13.608;2022-12-05T17:15:56;15.23;;;2.78;;
52188;SDS011;38162;45.926;13.608;2022-12-05T17:18:22;17.52;;;3.20;;
52188;SDS011;38162;45.926;13.608;2022-12-05T17:20:48;18.60;;;3.83;;
52188;SDS011;38162;45.926;13.608;2022-12-05T17:23:19;15.52;;;3.00;;
52188;SDS011;38162;45.926;13.608;2022-12-05T17:25:49;17.17;;;2.70;;
52188;SDS011;38162;45.926;13.608;2022-12-05T17:28:17;11.00;;;3.53;;
52188;SDS011;38162;45.926;13.608;2022-12-05T17:30:43;16.23;;;2.78;;
52188;SDS011;38162;45.926;13.608;2022-12-05T17:33:09;9.25;;;2.40;;
52188;SDS011;38162;45.926;13.608;2022-12-05T17:35:37;12.13;;;1.95;;
52188;SDS011;38162;45.926;13.608;2022-12-05T17:38:03;21.13;;;3.13;;
52188;SDS011;38162;45.926;13.608;2022-12-05T17:40:30;10.23;;;2.55;;
52188;SDS011;38162;45.926;13.608;2022-12-05T17:42:56;9.45;;;2.08;;
52188;SDS011;38162;45.926;13.608;2022-12-05T17:45:22;13.82;;;2.53;;
52188;SDS011;38162;45.926;13.608;2022-12-05T17:47:48;19.67;;;2.70;;
52188;SDS011;38162;45.926;13.608;2022-12-05T17:50:15;11.73;;;2.10;;
52188;SDS011;38162;45.926;13.608;2022-12-05T17:52:43;15.43;;;2.20;;
52188;SDS011;38162;45.926;13.608;2022-12-05T17:55:17;13.45;;;2.85;;
52188;SDS011;38162;45.926;13.608;2022-12-05T17:57:44;14.32;;;2.08;;